createdAt,value
2023-05-12T00:00:58.110Z,9.11
2023-05-12T00:06:04.524Z,9.14
2023-05-12T00:11:10.118Z,9.18
2023-05-12T00:16:17.544Z,9.21
2023-05-12T00:21:23.045Z,9.25
2023-05-12T00:26:28.341Z,9.28
2023-05-12T00:31:33.803Z,9.31
2023-05-12T00:36:39.991Z,9.33
2023-05-12T00:41:45.556Z,9.33
2023-05-12T00:46:52.783Z,9.36
2023-05-12T00:51:59.524Z,9.34
2023-05-12T00:57:06.258Z,9.32
2023-05-12T01:02:12.701Z,9.30
2023-05-12T01:07:21.850Z,9.26
2023-05-12T01:12:28.631Z,9.22
2023-05-12T01:17:37.090Z,9.15
2023-05-12T01:22:46.341Z,9.05
2023-05-12T01:27:52.652Z,8.96
2023-05-12T01:32:59.288Z,8.86
2023-05-12T01:38:04.945Z,8.74
2023-05-12T01:43:13.427Z,8.69
2023-05-12T01:48:18.888Z,8.68
2023-05-12T01:53:25.065Z,8.65
2023-05-12T01:58:30.700Z,8.63
2023-05-12T02:03:38.141Z,8.64
2023-05-12T02:08:48.416Z,8.55
2023-05-12T02:13:54.820Z,8.46
2023-05-12T02:19:00.979Z,8.41
2023-05-12T02:24:07.120Z,8.32
2023-05-12T02:29:13.892Z,8.25
2023-05-12T02:34:19.564Z,8.18
2023-05-12T02:39:25.002Z,8.19
2023-05-12T02:44:30.437Z,8.00
2023-05-12T02:49:36.466Z,7.95
2023-05-12T02:54:42.035Z,7.91
2023-05-12T02:59:47.597Z,7.80
2023-05-12T03:04:53.018Z,7.64
2023-05-12T03:09:59.027Z,7.59
2023-05-12T03:15:04.895Z,7.54
2023-05-12T03:20:14.286Z,7.47
2023-05-12T03:25:22.645Z,7.36
2023-05-12T03:30:28.074Z,7.34
2023-05-12T03:35:33.540Z,7.48
2023-05-12T03:40:40.614Z,7.66
2023-05-12T03:45:47.401Z,7.84
2023-05-12T03:50:54.124Z,8.04
2023-05-12T03:56:05.616Z,8.29
2023-05-12T04:01:11.701Z,8.55
2023-05-12T04:06:17.110Z,8.83
2023-05-12T04:11:23.561Z,9.16
2023-05-12T04:16:29.140Z,10.73
2023-05-12T04:21:37.353Z,14.31
2023-05-12T04:26:42.888Z,17.22
2023-05-12T04:31:48.409Z,19.55
2023-05-12T04:36:54.222Z,21.36
2023-05-12T04:42:04.538Z,22.73
2023-05-12T04:47:12.377Z,23.83
2023-05-12T04:52:18.046Z,25.26
2023-05-12T04:57:23.556Z,26.10
2023-05-12T05:02:29.421Z,26.95
2023-05-12T05:07:38.849Z,28.01
2023-05-12T05:12:44.920Z,28.65
2023-05-12T05:17:51.170Z,29.46
2023-05-12T05:22:56.993Z,29.62
2023-05-12T05:28:02.869Z,30.08
2023-05-12T05:33:08.592Z,30.60
2023-05-12T05:38:15.306Z,30.60
2023-05-12T05:43:20.903Z,30.53
2023-05-12T05:48:26.684Z,31.08
2023-05-12T05:53:33.814Z,31.40
2023-05-12T05:58:39.820Z,32.07
2023-05-12T06:03:45.927Z,33.00
2023-05-12T06:08:51.499Z,32.91
2023-05-12T06:13:56.937Z,33.13
2023-05-12T06:19:04.293Z,32.89
2023-05-12T06:24:09.947Z,33.22
2023-05-12T06:29:15.507Z,33.29
2023-05-12T06:34:21.287Z,33.62
2023-05-12T06:39:26.885Z,33.74
2023-05-12T06:44:32.374Z,34.07
2023-05-12T06:49:38.696Z,34.00
2023-05-12T06:54:48.361Z,34.04
2023-05-12T06:59:56.858Z,33.72
2023-05-12T07:05:02.445Z,33.92
2023-05-12T07:10:09.897Z,34.44
2023-05-12T07:15:15.628Z,33.93
2023-05-12T07:20:21.216Z,33.58
2023-05-12T07:25:28.176Z,33.88
2023-05-12T07:30:33.763Z,34.23
2023-05-12T07:35:39.753Z,34.67
2023-05-12T07:40:45.370Z,34.62
2023-05-12T07:45:51.164Z,34.18
2023-05-12T07:50:57.250Z,33.63
2023-05-12T07:56:02.832Z,33.51
2023-05-12T08:01:09.275Z,32.76
2023-05-12T08:06:14.742Z,32.88
2023-05-12T08:11:20.906Z,33.41
2023-05-12T08:16:26.360Z,33.27
2023-05-12T08:21:31.769Z,32.55
2023-05-12T08:26:37.150Z,31.85
2023-05-12T08:31:42.725Z,31.49
2023-05-12T08:36:48.552Z,31.98
2023-05-12T08:42:10.575Z,32.34
2023-05-12T08:47:18.760Z,31.72
2023-05-12T08:52:25.933Z,31.69
2023-05-12T08:57:31.932Z,31.88
2023-05-12T09:02:52.091Z,31.73
2023-05-12T09:07:59.879Z,31.85
2023-05-12T09:13:13.538Z,31.69
2023-05-12T09:18:19.376Z,31.12
2023-05-12T09:23:26.050Z,30.57
2023-05-12T09:28:38.290Z,30.59
2023-05-12T09:33:44.113Z,30.35
2023-05-12T09:39:00.606Z,30.00
2023-05-12T09:44:07.856Z,29.53
2023-05-12T09:49:18.241Z,29.17
2023-05-12T09:54:28.474Z,29.04
2023-05-12T09:59:36.563Z,29.52
2023-05-12T10:04:48.009Z,29.87
2023-05-12T10:09:55.558Z,28.97
2023-05-12T10:15:01.906Z,28.97
2023-05-12T10:20:10.104Z,29.30
2023-05-12T10:25:16.945Z,28.85
2023-05-12T10:30:23.414Z,29.19
2023-05-12T10:35:36.390Z,28.70
2023-05-12T10:40:54.028Z,28.84
2023-05-12T10:46:10.870Z,28.89
2023-05-12T10:51:23.042Z,28.88
2023-05-12T10:56:30.768Z,29.07
2023-05-12T11:01:38.015Z,27.77
2023-05-12T11:06:53.219Z,26.88
2023-05-12T11:12:00.449Z,26.22
2023-05-12T11:17:06.987Z,26.59
2023-05-12T11:22:13.834Z,26.92
2023-05-12T11:27:23.806Z,26.54
2023-05-12T11:32:31.721Z,26.76
2023-05-12T11:37:40.373Z,26.78
2023-05-12T11:42:51.946Z,26.55
2023-05-12T11:48:09.837Z,26.40
2023-05-12T11:53:18.529Z,25.93
2023-05-12T11:58:26.633Z,24.65
2023-05-12T12:03:32.290Z,23.99
2023-05-12T12:08:40.586Z,23.88
2023-05-12T12:13:56.732Z,24.14
2023-05-12T12:19:02.431Z,23.90
2023-05-12T12:24:08.431Z,23.82
2023-05-12T12:29:14.551Z,23.95
2023-05-12T12:34:19.894Z,23.87
2023-05-12T12:39:25.921Z,23.79
2023-05-12T12:44:31.239Z,23.65
2023-05-12T12:49:36.758Z,23.61
2023-05-12T12:54:42.200Z,23.80
2023-05-12T12:59:48.929Z,23.96
2023-05-12T13:04:54.888Z,24.11
2023-05-12T13:10:00.339Z,23.81
2023-05-12T13:15:07.247Z,23.34
2023-05-12T13:20:14.301Z,23.17
2023-05-12T13:25:20.094Z,23.26
2023-05-12T13:30:25.956Z,23.16
2023-05-12T13:35:31.705Z,23.17
2023-05-12T13:40:37.273Z,23.05
2023-05-12T13:45:42.864Z,22.70
2023-05-12T13:50:48.222Z,22.51
2023-05-12T13:55:53.583Z,22.14
2023-05-12T14:00:59.260Z,21.60
2023-05-12T14:06:05.012Z,21.18
2023-05-12T14:11:11.461Z,21.23
2023-05-12T14:16:17.047Z,21.35
2023-05-12T14:21:22.968Z,21.50
2023-05-12T14:26:28.396Z,21.61
2023-05-12T14:31:34.322Z,21.71
2023-05-12T14:36:39.839Z,21.44
2023-05-12T14:41:45.704Z,21.21
2023-05-12T14:46:51.547Z,20.90
2023-05-12T14:51:57.522Z,21.01
2023-05-12T14:57:04.090Z,21.30
2023-05-12T15:02:12.600Z,21.22
2023-05-12T15:07:18.911Z,21.16
2023-05-12T15:12:24.959Z,21.18
2023-05-12T15:17:30.770Z,21.21
2023-05-12T15:22:38.944Z,21.22
2023-05-12T15:27:44.436Z,21.24
2023-05-12T15:32:50.037Z,21.28
2023-05-12T15:37:55.576Z,21.24
2023-05-12T15:43:01.144Z,21.22
2023-05-12T15:48:09.515Z,20.89
2023-05-12T15:53:17.168Z,20.54
2023-05-12T15:58:24.942Z,20.25
2023-05-12T16:03:30.652Z,20.19
2023-05-12T16:08:36.544Z,20.12
2023-05-12T16:13:42.440Z,19.98
2023-05-12T16:18:47.836Z,19.81
2023-05-12T16:23:53.438Z,19.71
2023-05-12T16:28:58.752Z,19.67
2023-05-12T16:34:04.310Z,19.63
2023-05-12T16:39:10.465Z,19.59
2023-05-12T16:44:15.838Z,19.53
2023-05-12T16:49:21.177Z,19.43
2023-05-12T16:54:26.924Z,19.33
2023-05-12T16:59:32.429Z,19.17
2023-05-12T17:04:38.015Z,19.01
2023-05-12T17:09:43.466Z,18.89
2023-05-12T17:14:56.104Z,18.79
2023-05-12T17:20:13.876Z,18.69
2023-05-12T17:25:20.871Z,18.58
2023-05-12T17:30:26.995Z,18.46
2023-05-12T17:36:10.887Z,18.33
2023-05-12T17:41:22.711Z,18.19
2023-05-12T17:46:28.420Z,18.03
2023-05-12T17:51:35.461Z,17.86
2023-05-12T17:56:41.366Z,17.66
2023-05-12T18:01:46.797Z,17.38
2023-05-12T18:06:52.707Z,17.01
2023-05-12T18:11:58.158Z,16.64
2023-05-12T18:17:03.714Z,16.22
2023-05-12T18:22:09.189Z,15.85
2023-05-12T18:27:15.104Z,15.47
2023-05-12T18:32:20.497Z,15.10
2023-05-12T18:37:25.956Z,14.79
2023-05-12T18:42:31.919Z,14.57
2023-05-12T18:47:37.665Z,14.29
2023-05-12T18:52:44.016Z,13.99
2023-05-12T18:57:49.668Z,13.69
2023-05-12T19:02:55.146Z,13.47
2023-05-12T19:08:00.884Z,13.25
2023-05-12T19:13:06.759Z,13.12
2023-05-12T19:18:12.592Z,13.05
2023-05-12T19:23:18.120Z,13.01
2023-05-12T19:28:24.299Z,12.87
2023-05-12T19:33:31.972Z,12.50
2023-05-12T19:38:38.017Z,12.11
2023-05-12T19:43:43.417Z,11.78
2023-05-12T19:48:49.388Z,11.51
2023-05-12T19:53:55.151Z,11.22
2023-05-12T19:59:00.655Z,10.98
2023-05-12T20:04:06.158Z,10.85
2023-05-12T20:09:12.019Z,10.66
2023-05-12T20:14:17.443Z,10.45
2023-05-12T20:19:22.874Z,10.25
2023-05-12T20:24:28.441Z,10.05
2023-05-12T20:29:34.413Z,9.88
2023-05-12T20:34:39.906Z,9.75
2023-05-12T20:39:45.303Z,9.61
2023-05-12T20:44:51.003Z,9.42
2023-05-12T20:50:05.302Z,9.30
2023-05-12T20:55:11.352Z,9.21
2023-05-12T21:00:18.335Z,9.07
2023-05-12T21:05:23.985Z,8.95
2023-05-12T21:10:31.228Z,8.85
2023-05-12T21:15:37.216Z,8.75
2023-05-12T21:20:42.659Z,8.68
2023-05-12T21:25:49.043Z,8.58
2023-05-12T21:30:54.992Z,8.47
2023-05-12T21:36:00.760Z,8.40
2023-05-12T21:41:06.421Z,8.33
2023-05-12T21:46:11.969Z,8.26
2023-05-12T21:51:17.615Z,8.16
2023-05-12T21:56:23.217Z,8.11
2023-05-12T22:01:29.742Z,8.06
2023-05-12T22:06:35.546Z,8.05
2023-05-12T22:11:41.304Z,8.05
2023-05-12T22:16:47.878Z,8.05
2023-05-12T22:21:54.951Z,8.05
2023-05-12T22:27:01.147Z,7.96
2023-05-12T22:32:07.684Z,7.79
2023-05-12T22:37:13.368Z,7.64
2023-05-12T22:42:18.943Z,7.53
2023-05-12T22:47:24.521Z,7.43
2023-05-12T22:52:30.612Z,7.39
2023-05-12T22:57:38.618Z,7.43
2023-05-12T23:02:44.297Z,7.52
2023-05-12T23:07:50.401Z,7.63
2023-05-12T23:12:56.031Z,7.69
2023-05-12T23:18:21.654Z,7.66
2023-05-12T23:23:36.244Z,7.61
2023-05-12T23:28:41.687Z,7.61
2023-05-12T23:33:47.248Z,7.54
2023-05-12T23:38:54.617Z,7.54
2023-05-12T23:44:00.297Z,7.61
2023-05-12T23:49:06.512Z,7.71
2023-05-12T23:54:12.061Z,7.71
2023-05-12T23:59:17.601Z,7.63
